createdAt,value
2023-04-22T00:01:09.980Z,6.15
2023-04-22T00:03:47.604Z,5.15
2023-04-22T00:06:16.144Z,5.80
2023-04-22T00:08:43.296Z,5.05
2023-04-22T00:11:11.150Z,5.85
2023-04-22T00:16:28.828Z,5.78
2023-04-22T00:18:59.997Z,5.90
2023-04-22T00:21:27.579Z,6.00
2023-04-22T00:23:58.161Z,4.90
2023-04-22T00:26:30.950Z,5.78
2023-04-22T00:29:05.998Z,5.70
2023-04-22T00:31:37.763Z,5.63
2023-04-22T00:34:06.417Z,6.13
2023-04-22T00:36:36.549Z,5.75
2023-04-22T00:39:03.899Z,6.32
2023-04-22T00:41:32.718Z,6.57
2023-04-22T00:44:00.996Z,6.18
2023-04-22T00:46:29.075Z,6.53
2023-04-22T00:48:57.851Z,7.10
2023-04-22T00:51:25.011Z,7.18
2023-04-22T00:53:52.217Z,6.75
2023-04-22T00:56:24.721Z,7.20
2023-04-22T00:59:04.395Z,6.65
2023-04-22T01:01:41.907Z,6.35
2023-04-22T01:04:15.513Z,6.22
2023-04-22T01:06:44.632Z,7.40
2023-04-22T01:09:12.451Z,6.45
2023-04-22T01:11:39.769Z,6.72
2023-04-22T01:14:14.721Z,6.22
2023-04-22T01:16:43.850Z,5.97
2023-04-22T01:19:12.235Z,6.18
2023-04-22T01:21:47.528Z,6.38
2023-04-22T01:24:19.604Z,7.28
2023-04-22T01:26:48.378Z,5.80
2023-04-22T01:29:21.936Z,6.63
2023-04-22T01:31:52.449Z,6.30
2023-04-22T01:34:26.756Z,7.43
2023-04-22T01:36:56.239Z,5.93
2023-04-22T01:39:24.360Z,6.30
2023-04-22T01:41:51.985Z,5.90
2023-04-22T01:44:19.884Z,6.40
2023-04-22T01:49:16.184Z,6.47
2023-04-22T01:51:43.759Z,6.15
2023-04-22T01:54:14.105Z,6.70
2023-04-22T01:56:48.886Z,7.32
2023-04-22T01:59:16.118Z,6.72
2023-04-22T02:01:43.499Z,6.35
2023-04-22T02:04:15.379Z,6.30
2023-04-22T02:06:45.823Z,7.13
2023-04-22T02:09:14.915Z,7.30
2023-04-22T02:11:42.119Z,6.50
2023-04-22T02:14:11.982Z,6.20
2023-04-22T02:16:46.683Z,6.55
2023-04-22T02:19:13.840Z,6.03
2023-04-22T02:21:44.994Z,6.97
2023-04-22T02:24:21.012Z,6.05
2023-04-22T02:26:49.227Z,6.30
2023-04-22T02:29:19.520Z,7.13
2023-04-22T02:31:47.747Z,7.20
2023-04-22T02:34:16.666Z,7.10
2023-04-22T02:39:11.999Z,6.18
2023-04-22T02:41:43.079Z,7.05
2023-04-22T02:44:15.237Z,6.80
2023-04-22T02:46:44.891Z,6.32
2023-04-22T02:49:15.176Z,6.03
2023-04-22T02:51:53.347Z,6.50
2023-04-22T02:54:22.189Z,7.13
2023-04-22T02:56:49.387Z,7.00
2023-04-22T02:59:16.709Z,7.18
2023-04-22T03:01:45.781Z,6.53
2023-04-22T03:04:26.284Z,7.65
2023-04-22T03:06:54.268Z,6.85
2023-04-22T03:09:27.950Z,6.25
2023-04-22T03:11:55.889Z,6.35
2023-04-22T03:14:27.430Z,6.68
2023-04-22T03:17:02.369Z,6.75
2023-04-22T03:19:30.996Z,7.85
2023-04-22T03:21:59.242Z,6.18
2023-04-22T03:24:26.886Z,7.20
2023-04-22T03:26:56.874Z,6.00
2023-04-22T03:29:27.124Z,6.55
2023-04-22T03:31:54.518Z,5.68
2023-04-22T03:34:22.105Z,5.95
2023-04-22T03:36:49.646Z,6.47
2023-04-22T03:39:18.953Z,5.93
2023-04-22T03:41:46.933Z,6.00
2023-04-22T03:44:14.124Z,6.68
2023-04-22T03:46:48.806Z,6.72
2023-04-22T03:49:39.495Z,6.40
2023-04-22T03:52:14.604Z,6.78
2023-04-22T03:54:50.675Z,6.45
2023-04-22T03:57:21.390Z,6.03
2023-04-22T03:59:48.707Z,5.85
2023-04-22T04:02:16.199Z,6.30
2023-04-22T04:04:43.786Z,6.43
2023-04-22T04:07:11.221Z,6.47
2023-04-22T04:09:38.693Z,5.95
2023-04-22T04:14:41.182Z,5.55
2023-04-22T04:17:19.169Z,6.05
2023-04-22T04:19:51.217Z,5.88
2023-04-22T04:22:20.728Z,5.88
2023-04-22T04:24:56.118Z,6.80
2023-04-22T04:27:27.984Z,6.65
2023-04-22T04:29:56.226Z,7.00
2023-04-22T04:32:37.001Z,6.82
2023-04-22T04:35:14.879Z,6.75
2023-04-22T04:37:46.978Z,6.30
2023-04-22T04:40:32.914Z,6.50
2023-04-22T04:43:33.269Z,6.15
2023-04-22T04:46:10.848Z,7.00
2023-04-22T04:48:39.286Z,7.18
2023-04-22T04:51:08.878Z,5.78
2023-04-22T04:53:45.603Z,5.90
2023-04-22T04:56:17.139Z,5.63
2023-04-22T04:58:45.769Z,5.97
2023-04-22T05:01:18.877Z,6.03
2023-04-22T05:03:50.915Z,5.90
2023-04-22T05:06:23.307Z,5.78
2023-04-22T05:08:55.971Z,5.68
2023-04-22T05:11:24.004Z,5.95
2023-04-22T05:13:52.786Z,6.53
2023-04-22T05:16:26.794Z,6.25
2023-04-22T05:18:55.116Z,6.53
2023-04-22T05:21:29.826Z,6.47
2023-04-22T05:24:03.413Z,6.73
2023-04-22T05:26:30.625Z,5.80
2023-04-22T05:29:00.724Z,6.40
2023-04-22T05:31:30.816Z,6.65
2023-04-22T05:34:02.240Z,6.20
2023-04-22T05:36:32.505Z,6.78
2023-04-22T05:39:00.737Z,5.72
2023-04-22T05:41:33.053Z,6.15
2023-04-22T05:44:04.419Z,5.68
2023-04-22T05:46:32.853Z,5.60
2023-04-22T05:49:02.932Z,6.03
2023-04-22T05:51:48.425Z,5.45
2023-04-22T05:54:19.242Z,5.97
2023-04-22T05:59:13.602Z,6.60
2023-04-22T06:01:51.453Z,5.78
2023-04-22T06:04:21.636Z,6.07
2023-04-22T06:06:49.984Z,5.88
2023-04-22T06:09:19.695Z,6.22
2023-04-22T06:11:50.264Z,6.72
2023-04-22T06:14:26.919Z,6.18
2023-04-22T06:16:54.994Z,6.50
2023-04-22T06:19:22.211Z,5.28
2023-04-22T06:21:49.371Z,6.10
2023-04-22T06:24:17.959Z,5.60
2023-04-22T06:26:49.188Z,6.43
2023-04-22T06:29:27.520Z,6.10
2023-04-22T06:31:59.410Z,6.15
2023-04-22T06:34:30.563Z,6.15
2023-04-22T06:36:57.859Z,5.75
2023-04-22T06:39:28.313Z,6.05
2023-04-22T06:42:28.943Z,5.65
2023-04-22T06:45:17.789Z,5.78
2023-04-22T06:48:18.777Z,5.85
2023-04-22T06:51:12.993Z,5.65
2023-04-22T06:53:43.994Z,4.88
2023-04-22T06:56:19.207Z,5.82
2023-04-22T06:58:51.329Z,6.43
2023-04-22T07:01:19.223Z,5.65
2023-04-22T07:03:53.135Z,4.60
2023-04-22T07:06:38.648Z,5.82
2023-04-22T07:09:12.688Z,5.57
2023-04-22T07:11:40.034Z,6.00
2023-04-22T07:14:15.492Z,6.05
2023-04-22T07:16:42.893Z,5.47
2023-04-22T07:19:13.400Z,5.72
2023-04-22T07:21:40.659Z,5.32
2023-04-22T07:24:13.782Z,5.30
2023-04-22T07:26:50.066Z,4.70
2023-04-22T07:29:17.223Z,4.97
2023-04-22T07:34:28.503Z,5.82
2023-04-22T07:36:55.964Z,5.60
2023-04-22T07:42:05.267Z,5.10
2023-04-22T07:44:34.521Z,5.07
2023-04-22T07:47:11.295Z,4.90
2023-04-22T07:50:07.131Z,5.93
2023-04-22T07:52:36.192Z,4.80
2023-04-22T07:55:10.976Z,4.85
2023-04-22T07:57:44.087Z,5.53
2023-04-22T08:00:11.778Z,5.63
2023-04-22T08:02:44.879Z,5.70
2023-04-22T08:05:12.412Z,4.30
2023-04-22T08:07:39.630Z,5.32
2023-04-22T08:10:07.379Z,5.70
2023-04-22T08:12:35.209Z,4.80
2023-04-22T08:17:33.231Z,4.05
2023-04-22T08:20:06.606Z,4.50
2023-04-22T08:22:35.425Z,4.82
2023-04-22T08:25:02.906Z,4.47
2023-04-22T08:27:30.102Z,4.47
2023-04-22T08:29:57.926Z,5.00
2023-04-22T08:32:26.621Z,4.28
2023-04-22T08:35:04.442Z,4.35
2023-04-22T08:37:32.721Z,4.95
2023-04-22T08:40:00.051Z,6.25
2023-04-22T08:42:30.605Z,5.00
2023-04-22T08:44:58.490Z,4.75
2023-04-22T08:47:28.943Z,4.95
2023-04-22T08:50:00.808Z,4.63
2023-04-22T08:52:27.934Z,4.68
2023-04-22T08:55:00.231Z,4.25
2023-04-22T08:57:28.798Z,3.88
2023-04-22T09:00:03.452Z,3.78
2023-04-22T09:02:35.202Z,4.53
2023-04-22T09:05:06.056Z,3.78
2023-04-22T09:07:35.214Z,4.15
2023-04-22T09:10:03.287Z,3.75
2023-04-22T09:12:33.447Z,4.20
2023-04-22T09:15:00.832Z,3.58
2023-04-22T09:17:35.364Z,3.95
2023-04-22T09:20:06.195Z,4.10
2023-04-22T09:22:46.926Z,3.85
2023-04-22T09:25:22.684Z,3.65
2023-04-22T09:27:59.695Z,3.65
2023-04-22T09:30:39.191Z,3.60
2023-04-22T09:33:09.157Z,3.75
2023-04-22T09:35:41.491Z,4.40
2023-04-22T09:38:11.631Z,3.42
2023-04-22T09:40:44.318Z,3.78
2023-04-22T09:43:22.351Z,3.85
2023-04-22T09:45:51.156Z,4.35
2023-04-22T09:48:19.642Z,3.47
2023-04-22T09:50:49.198Z,4.03
2023-04-22T09:53:19.139Z,3.42
2023-04-22T09:56:00.920Z,3.17
2023-04-22T09:58:28.264Z,3.38
2023-04-22T10:00:59.974Z,2.88
2023-04-22T10:03:36.806Z,3.20
2023-04-22T10:06:05.736Z,3.20
2023-04-22T10:08:33.552Z,3.30
2023-04-22T10:11:01.026Z,3.08
2023-04-22T10:13:31.139Z,3.58
2023-04-22T10:15:58.896Z,2.63
2023-04-22T10:21:00.523Z,2.78
2023-04-22T10:23:35.858Z,2.97
2023-04-22T10:26:05.847Z,2.60
2023-04-22T10:28:33.470Z,2.58
2023-04-22T10:31:20.746Z,2.70
2023-04-22T10:36:22.569Z,2.67
2023-04-22T10:38:58.649Z,3.00
2023-04-22T10:41:32.736Z,2.88
2023-04-22T10:44:09.236Z,2.60
2023-04-22T10:46:43.783Z,2.43
2023-04-22T10:49:20.938Z,2.47
2023-04-22T10:51:59.130Z,2.58
2023-04-22T10:54:28.752Z,2.08
2023-04-22T10:57:02.121Z,2.78
2023-04-22T10:59:37.640Z,2.08
2023-04-22T11:02:16.117Z,2.70
2023-04-22T11:04:48.240Z,2.20
2023-04-22T11:07:20.714Z,2.70
2023-04-22T11:09:53.402Z,2.88
2023-04-22T11:12:38.760Z,2.65
2023-04-22T11:15:10.848Z,2.28
2023-04-22T11:17:40.430Z,2.55
2023-04-22T11:20:17.588Z,3.30
2023-04-22T11:22:49.459Z,2.85
2023-04-22T11:25:26.976Z,3.15
2023-04-22T11:27:55.552Z,2.90
2023-04-22T11:30:26.137Z,2.72
2023-04-22T11:32:59.906Z,2.05
2023-04-22T11:35:30.435Z,2.60
2023-04-22T11:38:00.661Z,2.13
2023-04-22T11:40:44.701Z,3.13
2023-04-22T11:43:18.568Z,2.90
2023-04-22T11:45:46.528Z,2.58
2023-04-22T11:51:16.034Z,2.90
2023-04-22T11:53:53.676Z,3.10
2023-04-22T11:56:24.654Z,2.95
2023-04-22T11:58:51.862Z,2.55
2023-04-22T12:01:23.409Z,2.28
2023-04-22T12:04:00.704Z,2.97
2023-04-22T12:06:33.748Z,2.88
2023-04-22T12:09:02.535Z,2.55
2023-04-22T12:11:33.020Z,2.60
2023-04-22T12:14:06.609Z,2.30
2023-04-22T12:16:41.673Z,2.83
2023-04-22T12:19:11.340Z,2.92
2023-04-22T12:21:48.161Z,2.97
2023-04-22T12:24:18.784Z,2.47
2023-04-22T12:26:48.847Z,2.75
2023-04-22T12:29:16.893Z,3.35
2023-04-22T12:31:47.470Z,2.50
2023-04-22T12:34:14.544Z,3.03
2023-04-22T12:36:44.030Z,3.20
2023-04-22T12:39:15.715Z,3.63
2023-04-22T12:41:48.453Z,2.55
2023-04-22T12:44:15.556Z,3.00
2023-04-22T12:46:44.169Z,3.15
2023-04-22T12:49:14.489Z,2.78
2023-04-22T12:51:42.304Z,3.33
2023-04-22T12:54:12.419Z,2.75
2023-04-22T12:56:43.789Z,3.63
2023-04-22T12:59:11.073Z,2.92
2023-04-22T13:01:38.877Z,3.40
2023-04-22T13:04:06.445Z,3.03
2023-04-22T13:06:34.640Z,2.78
2023-04-22T13:09:03.875Z,2.90
2023-04-22T13:11:33.834Z,2.90
2023-04-22T13:14:03.921Z,2.85
2023-04-22T13:16:36.463Z,3.10
2023-04-22T13:19:06.410Z,2.63
2023-04-22T13:21:34.160Z,3.10
2023-04-22T13:24:01.254Z,2.45
2023-04-22T13:26:30.747Z,2.70
2023-04-22T13:28:58.205Z,2.78
2023-04-22T13:31:25.608Z,2.42
2023-04-22T13:33:52.825Z,2.53
2023-04-22T13:36:20.968Z,4.05
2023-04-22T13:38:48.185Z,2.97
2023-04-22T13:41:15.773Z,2.50
2023-04-22T13:43:44.297Z,3.13
2023-04-22T13:46:11.706Z,2.78
2023-04-22T13:48:39.131Z,2.90
2023-04-22T13:51:07.088Z,2.53
2023-04-22T13:53:34.710Z,2.88
2023-04-22T13:58:33.143Z,3.60
2023-04-22T14:01:00.370Z,2.33
2023-04-22T14:03:30.095Z,2.63
2023-04-22T14:05:57.481Z,4.43
2023-04-22T14:08:25.167Z,2.72
2023-04-22T14:10:52.666Z,2.78
2023-04-22T14:13:23.624Z,2.53
2023-04-22T14:15:55.149Z,2.42
2023-04-22T14:18:25.762Z,2.72
2023-04-22T14:20:55.676Z,2.70
2023-04-22T14:23:22.869Z,2.70
2023-04-22T14:25:50.120Z,2.40
2023-04-22T14:28:20.095Z,2.75
2023-04-22T14:30:47.317Z,2.78
2023-04-22T14:33:17.393Z,2.83
2023-04-22T14:35:44.792Z,2.60
2023-04-22T14:38:12.692Z,2.70
2023-04-22T14:40:40.885Z,2.65
2023-04-22T14:43:08.076Z,2.47
2023-04-22T14:45:35.518Z,2.80
2023-04-22T14:48:02.765Z,2.45
2023-04-22T14:50:30.761Z,2.35
2023-04-22T14:53:03.450Z,2.47
2023-04-22T14:55:43.757Z,3.00
2023-04-22T14:58:11.130Z,2.97
2023-04-22T15:00:38.638Z,3.15
2023-04-22T15:10:28.290Z,3.13
2023-04-22T15:12:56.101Z,3.47
2023-04-22T15:15:23.581Z,2.80
2023-04-22T15:17:51.974Z,3.20
2023-04-22T15:20:24.827Z,4.05
2023-04-22T15:22:52.205Z,4.38
2023-04-22T15:25:20.924Z,3.90
2023-04-22T15:27:49.158Z,4.38
2023-04-22T15:30:16.364Z,3.95
2023-04-22T15:32:43.738Z,3.85
2023-04-22T15:35:23.426Z,3.58
2023-04-22T15:37:50.756Z,3.63
2023-04-22T15:40:17.925Z,3.13
2023-04-22T15:42:45.275Z,3.20
2023-04-22T15:45:12.579Z,3.42
2023-04-22T15:47:48.933Z,3.45
2023-04-22T15:50:18.762Z,6.70
2023-04-22T15:52:47.188Z,7.43
2023-04-22T15:55:15.096Z,9.23
2023-04-22T15:57:42.494Z,9.27
2023-04-22T16:00:13.462Z,6.50
2023-04-22T16:02:57.756Z,4.95
2023-04-22T16:05:26.024Z,5.53
2023-04-22T16:07:53.694Z,5.32
2023-04-22T16:10:26.302Z,3.78
2023-04-22T16:12:53.482Z,4.20
2023-04-22T16:15:22.706Z,4.18
2023-04-22T16:17:50.868Z,4.93
2023-04-22T16:20:18.817Z,5.28
2023-04-22T16:22:45.956Z,5.65
2023-04-22T16:25:13.207Z,4.63
2023-04-22T16:27:43.573Z,4.00
2023-04-22T16:30:12.380Z,11.73
2023-04-22T16:32:42.305Z,11.52
2023-04-22T16:37:37.555Z,9.13
2023-04-22T16:40:17.542Z,9.05
2023-04-22T16:42:44.746Z,8.80
2023-04-22T16:45:14.460Z,8.32
2023-04-22T16:47:45.237Z,6.82
2023-04-22T16:50:12.523Z,5.97
2023-04-22T16:52:40.514Z,7.10
2023-04-22T16:55:08.371Z,5.80
2023-04-22T16:57:36.066Z,4.95
2023-04-22T17:00:05.937Z,6.45
2023-04-22T17:02:36.031Z,6.30
2023-04-22T17:05:07.151Z,5.38
2023-04-22T17:07:43.358Z,4.40
2023-04-22T17:10:10.838Z,4.85
2023-04-22T17:12:49.986Z,5.38
2023-04-22T17:15:17.732Z,6.05
2023-04-22T17:17:53.036Z,4.90
2023-04-22T17:23:06.735Z,4.80
2023-04-22T17:25:39.718Z,4.10
2023-04-22T17:28:11.553Z,4.35
2023-04-22T17:30:39.090Z,4.68
2023-04-22T17:33:06.227Z,5.18
2023-04-22T17:35:33.381Z,4.85
2023-04-22T17:38:06.033Z,5.28
2023-04-22T17:40:42.170Z,4.63
2023-04-22T17:43:12.240Z,5.00
2023-04-22T17:45:49.538Z,5.57
2023-04-22T17:48:16.742Z,4.53
2023-04-22T17:50:43.950Z,5.00
2023-04-22T17:53:18.480Z,4.68
2023-04-22T17:55:49.768Z,5.07
2023-04-22T17:58:16.922Z,5.13
2023-04-22T18:00:46.613Z,5.05
2023-04-22T18:03:17.615Z,4.38
2023-04-22T18:05:44.802Z,4.80
2023-04-22T18:08:14.743Z,5.50
2023-04-22T18:10:41.931Z,4.38
2023-04-22T18:13:09.015Z,5.28
2023-04-22T18:15:37.873Z,5.38
2023-04-22T18:18:05.814Z,4.97
2023-04-22T18:20:33.712Z,4.60
2023-04-22T18:23:04.118Z,5.38
2023-04-22T18:25:34.000Z,5.68
2023-04-22T18:28:04.770Z,6.20
2023-04-22T18:30:32.893Z,5.25
2023-04-22T18:35:44.420Z,5.28
2023-04-22T18:38:12.986Z,5.55
2023-04-22T18:40:41.007Z,5.68
2023-04-22T18:43:09.587Z,6.28
2023-04-22T18:45:36.713Z,6.55
2023-04-22T18:48:06.106Z,6.15
2023-04-22T18:50:33.306Z,5.70
2023-04-22T18:53:00.654Z,6.07
2023-04-22T18:55:29.920Z,6.25
2023-04-22T18:58:04.143Z,5.50
2023-04-22T19:00:32.723Z,4.88
2023-04-22T19:03:07.564Z,5.22
2023-04-22T19:05:44.931Z,5.30
2023-04-22T19:08:19.324Z,5.78
2023-04-22T19:10:47.782Z,6.50
2023-04-22T19:13:28.158Z,6.82
2023-04-22T19:15:56.720Z,5.63
2023-04-22T19:18:24.017Z,6.63
2023-04-22T19:20:51.207Z,5.57
2023-04-22T19:23:22.313Z,6.30
2023-04-22T19:25:50.433Z,5.57
2023-04-22T19:28:17.820Z,6.25
2023-04-22T19:30:45.184Z,6.38
2023-04-22T19:33:12.746Z,5.75
2023-04-22T19:35:39.904Z,5.63
2023-04-22T19:38:07.692Z,5.95
2023-04-22T19:43:01.884Z,5.53
2023-04-22T19:45:30.211Z,6.50
2023-04-22T19:48:00.391Z,7.18
2023-04-22T19:50:27.967Z,6.82
2023-04-22T19:53:05.372Z,7.03
2023-04-22T19:55:33.850Z,7.80
2023-04-22T19:58:01.114Z,7.68
2023-04-22T20:00:28.471Z,8.88
2023-04-22T20:02:56.870Z,8.25
2023-04-22T20:05:24.799Z,9.43
2023-04-22T20:10:22.633Z,8.38
2023-04-22T20:12:53.530Z,9.63
2023-04-22T20:15:20.922Z,10.07
2023-04-22T20:17:49.456Z,9.65
2023-04-22T20:20:17.828Z,8.65
2023-04-22T20:22:46.183Z,10.23
2023-04-22T20:25:15.444Z,8.88
2023-04-22T20:27:43.161Z,9.88
2023-04-22T20:30:11.566Z,9.18
2023-04-22T20:32:38.901Z,8.60
2023-04-22T20:35:07.090Z,8.95
2023-04-22T20:37:36.036Z,8.88
2023-04-22T20:40:05.720Z,8.63
2023-04-22T20:42:33.157Z,9.35
2023-04-22T20:45:00.505Z,7.95
2023-04-22T20:47:27.703Z,8.13
2023-04-22T20:49:54.804Z,7.93
2023-04-22T20:52:23.356Z,8.70
2023-04-22T20:54:57.100Z,8.18
2023-04-22T20:57:25.420Z,7.47
2023-04-22T20:59:52.646Z,7.38
2023-04-22T21:02:20.246Z,9.00
2023-04-22T21:04:57.693Z,7.35
2023-04-22T21:07:30.756Z,7.72
2023-04-22T21:10:00.843Z,6.78
2023-04-22T21:12:28.291Z,6.57
2023-04-22T21:14:55.830Z,8.05
2023-04-22T21:17:29.800Z,6.30
2023-04-22T21:20:04.031Z,7.30
2023-04-22T21:22:37.729Z,7.45
2023-04-22T21:25:07.246Z,6.90
2023-04-22T21:27:37.816Z,6.63
2023-04-22T21:30:08.611Z,6.97
2023-04-22T21:32:40.515Z,5.63
2023-04-22T21:35:08.504Z,6.40
2023-04-22T21:40:02.727Z,6.10
2023-04-22T21:45:00.307Z,5.72
2023-04-22T21:47:27.499Z,5.63
2023-04-22T21:49:54.646Z,5.95
2023-04-22T21:52:21.781Z,5.88
2023-04-22T21:54:49.747Z,5.00
2023-04-22T21:57:16.848Z,5.85
2023-04-22T21:59:43.909Z,6.05
2023-04-22T22:02:15.866Z,6.57
2023-04-22T22:04:43.446Z,6.70
2023-04-22T22:07:12.272Z,6.88
2023-04-22T22:09:40.161Z,7.18
2023-04-22T22:12:10.576Z,6.05
2023-04-22T22:14:38.330Z,6.07
2023-04-22T22:17:14.572Z,6.30
2023-04-22T22:19:50.460Z,6.38
2023-04-22T22:22:17.575Z,6.82
2023-04-22T22:24:45.587Z,6.97
2023-04-22T22:27:12.760Z,5.85
2023-04-22T22:29:40.923Z,7.03
2023-04-22T22:32:12.938Z,6.40
2023-04-22T22:34:46.474Z,7.10
2023-04-22T22:37:13.810Z,5.80
2023-04-22T22:39:43.997Z,5.97
2023-04-22T22:42:13.061Z,6.97
2023-04-22T22:44:40.593Z,6.25
2023-04-22T22:47:09.215Z,6.60
2023-04-22T22:49:37.607Z,6.57
2023-04-22T22:52:04.877Z,6.10
2023-04-22T22:54:36.422Z,6.30
2023-04-22T22:57:07.094Z,4.85
2023-04-22T22:59:36.754Z,5.70
2023-04-22T23:02:04.299Z,6.00
2023-04-22T23:04:31.590Z,5.82
2023-04-22T23:06:58.870Z,5.25
2023-04-22T23:09:26.050Z,5.95
2023-04-22T23:12:02.730Z,5.40
2023-04-22T23:14:35.175Z,5.43
2023-04-22T23:17:05.175Z,6.10
2023-04-22T23:19:32.604Z,5.72
2023-04-22T23:21:59.856Z,5.90
2023-04-22T23:24:27.269Z,5.30
2023-04-22T23:26:54.655Z,6.00
2023-04-22T23:29:22.201Z,5.05
2023-04-22T23:31:52.368Z,5.13
2023-04-22T23:34:22.885Z,4.82
2023-04-22T23:36:50.500Z,4.75
2023-04-22T23:39:17.836Z,5.53
2023-04-22T23:41:47.746Z,4.22
2023-04-22T23:44:14.864Z,5.45
2023-04-22T23:46:42.329Z,4.65
2023-04-22T23:49:09.474Z,4.63
2023-04-22T23:51:36.827Z,3.72
2023-04-22T23:54:04.027Z,4.50
2023-04-22T23:56:31.355Z,4.53
2023-04-22T23:59:02.861Z,4.47
